sensor_id;sensor_type;location;lat;lon;timestamp;P1;durP1;ratioP1;P2;durP2;ratioP2
46597;SDS011;32318;48.858;8.252;2023-07-20T00:01:41;5.28;;;1.90;;
46597;SDS011;32318;48.858;8.252;2023-07-20T00:09:44;7.30;;;2.40;;
46597;SDS011;32318;48.858;8.252;2023-07-20T00:17:46;6.70;;;1.80;;
46597;SDS011;32318;48.858;8.252;2023-07-20T00:25:46;14.02;;;2.25;;
46597;SDS011;32318;48.858;8.252;2023-07-20T00:33:47;3.33;;;1.80;;
46597;SDS011;32318;48.858;8.252;2023-07-20T00:41:47;8.80;;;1.80;;
46597;SDS011;32318;48.858;8.252;2023-07-20T00:49:47;5.55;;;1.95;;
46597;SDS011;32318;48.858;8.252;2023-07-20T00:57:48;5.30;;;2.30;;
46597;SDS011;32318;48.858;8.252;2023-07-20T01:05:50;5.72;;;2.25;;
46597;SDS011;32318;48.858;8.252;2023-07-20T01:13:55;4.25;;;1.80;;
46597;SDS011;32318;48.858;8.252;2023-07-20T01:22:00;7.13;;;1.90;;
46597;SDS011;32318;48.858;8.252;2023-07-20T01:38:26;8.05;;;2.03;;
46597;SDS011;32318;48.858;8.252;2023-07-20T01:46:26;9.60;;;2.33;;
46597;SDS011;32318;48.858;8.252;2023-07-20T01:54:27;9.25;;;2.20;;
46597;SDS011;32318;48.858;8.252;2023-07-20T02:02:27;6.75;;;2.03;;
46597;SDS011;32318;48.858;8.252;2023-07-20T02:10:30;7.35;;;2.45;;
46597;SDS011;32318;48.858;8.252;2023-07-20T02:18:31;6.38;;;2.63;;
46597;SDS011;32318;48.858;8.252;2023-07-20T02:26:31;7.85;;;2.25;;
46597;SDS011;32318;48.858;8.252;2023-07-20T02:34:31;8.60;;;2.53;;
46597;SDS011;32318;48.858;8.252;2023-07-20T02:42:32;8.73;;;2.95;;
46597;SDS011;32318;48.858;8.252;2023-07-20T02:50:32;5.63;;;2.60;;
46597;SDS011;32318;48.858;8.252;2023-07-20T02:58:35;8.07;;;2.80;;
46597;SDS011;32318;48.858;8.252;2023-07-20T03:06:40;14.38;;;2.75;;
46597;SDS011;32318;48.858;8.252;2023-07-20T03:14:40;10.35;;;2.58;;
46597;SDS011;32318;48.858;8.252;2023-07-20T03:22:40;6.38;;;2.20;;
46597;SDS011;32318;48.858;8.252;2023-07-20T03:30:41;6.82;;;2.60;;
46597;SDS011;32318;48.858;8.252;2023-07-20T03:38:41;8.07;;;2.83;;
46597;SDS011;32318;48.858;8.252;2023-07-20T03:46:41;10.50;;;2.78;;
46597;SDS011;32318;48.858;8.252;2023-07-20T03:54:41;6.13;;;2.13;;
46597;SDS011;32318;48.858;8.252;2023-07-20T04:02:42;8.43;;;3.05;;
46597;SDS011;32318;48.858;8.252;2023-07-20T04:10:43;7.72;;;2.70;;
46597;SDS011;32318;48.858;8.252;2023-07-20T04:18:44;11.57;;;2.47;;
46597;SDS011;32318;48.858;8.252;2023-07-20T04:26:44;5.38;;;2.30;;
46597;SDS011;32318;48.858;8.252;2023-07-20T04:34:44;10.75;;;2.78;;
46597;SDS011;32318;48.858;8.252;2023-07-20T04:42:45;6.65;;;2.50;;
46597;SDS011;32318;48.858;8.252;2023-07-20T04:50:45;7.70;;;2.58;;
46597;SDS011;32318;48.858;8.252;2023-07-20T04:58:45;5.63;;;2.15;;
46597;SDS011;32318;48.858;8.252;2023-07-20T05:06:46;4.88;;;2.33;;
46597;SDS011;32318;48.858;8.252;2023-07-20T05:14:46;7.97;;;2.80;;
46597;SDS011;32318;48.858;8.252;2023-07-20T05:22:46;7.53;;;2.58;;
46597;SDS011;32318;48.858;8.252;2023-07-20T05:30:47;10.82;;;2.38;;
46597;SDS011;32318;48.858;8.252;2023-07-20T05:38:47;9.63;;;2.38;;
46597;SDS011;32318;48.858;8.252;2023-07-20T05:46:48;5.32;;;2.25;;
46597;SDS011;32318;48.858;8.252;2023-07-20T05:54:48;7.85;;;2.55;;
46597;SDS011;32318;48.858;8.252;2023-07-20T06:02:48;13.95;;;2.40;;
46597;SDS011;32318;48.858;8.252;2023-07-20T06:10:51;8.80;;;2.42;;
46597;SDS011;32318;48.858;8.252;2023-07-20T06:18:52;9.85;;;2.22;;
46597;SDS011;32318;48.858;8.252;2023-07-20T06:26:57;18.53;;;2.60;;
46597;SDS011;32318;48.858;8.252;2023-07-20T06:34:57;6.85;;;1.92;;
46597;SDS011;32318;48.858;8.252;2023-07-20T06:42:57;7.47;;;2.10;;
46597;SDS011;32318;48.858;8.252;2023-07-20T06:50:57;8.02;;;2.30;;
46597;SDS011;32318;48.858;8.252;2023-07-20T06:58:58;10.80;;;2.67;;
46597;SDS011;32318;48.858;8.252;2023-07-20T07:06:58;6.47;;;2.10;;
46597;SDS011;32318;48.858;8.252;2023-07-20T07:14:59;7.25;;;2.70;;
46597;SDS011;32318;48.858;8.252;2023-07-20T07:22:59;7.07;;;2.10;;
46597;SDS011;32318;48.858;8.252;2023-07-20T07:31:00;7.28;;;2.20;;
46597;SDS011;32318;48.858;8.252;2023-07-20T07:39:00;5.68;;;2.05;;
46597;SDS011;32318;48.858;8.252;2023-07-20T07:47:01;12.38;;;1.90;;
46597;SDS011;32318;48.858;8.252;2023-07-20T07:55:01;6.53;;;1.88;;
46597;SDS011;32318;48.858;8.252;2023-07-20T08:03:01;11.32;;;1.60;;
46597;SDS011;32318;48.858;8.252;2023-07-20T08:11:02;4.93;;;1.70;;
46597;SDS011;32318;48.858;8.252;2023-07-20T08:19:02;12.90;;;2.00;;
46597;SDS011;32318;48.858;8.252;2023-07-20T08:27:02;5.70;;;1.95;;
46597;SDS011;32318;48.858;8.252;2023-07-20T08:35:03;8.13;;;1.90;;
46597;SDS011;32318;48.858;8.252;2023-07-20T08:43:03;8.35;;;1.58;;
46597;SDS011;32318;48.858;8.252;2023-07-20T08:51:03;6.82;;;1.77;;
46597;SDS011;32318;48.858;8.252;2023-07-20T08:59:04;17.88;;;1.73;;
46597;SDS011;32318;48.858;8.252;2023-07-20T09:07:05;4.20;;;1.60;;
46597;SDS011;32318;48.858;8.252;2023-07-20T09:15:06;16.47;;;1.70;;
46597;SDS011;32318;48.858;8.252;2023-07-20T09:23:07;11.50;;;1.73;;
46597;SDS011;32318;48.858;8.252;2023-07-20T09:31:15;6.10;;;1.73;;
46597;SDS011;32318;48.858;8.252;2023-07-20T09:39:17;3.90;;;1.58;;
46597;SDS011;32318;48.858;8.252;2023-07-20T09:47:24;7.85;;;1.50;;
46597;SDS011;32318;48.858;8.252;2023-07-20T09:55:26;9.57;;;1.70;;
46597;SDS011;32318;48.858;8.252;2023-07-20T10:03:28;7.67;;;1.53;;
46597;SDS011;32318;48.858;8.252;2023-07-20T10:11:30;6.50;;;2.13;;
46597;SDS011;32318;48.858;8.252;2023-07-20T10:19:44;4.72;;;1.83;;
46597;SDS011;32318;48.858;8.252;2023-07-20T10:27:47;3.15;;;1.40;;
46597;SDS011;32318;48.858;8.252;2023-07-20T10:35:55;7.90;;;1.23;;
46597;SDS011;32318;48.858;8.252;2023-07-20T10:44:04;13.18;;;1.50;;
46597;SDS011;32318;48.858;8.252;2023-07-20T10:52:05;2.80;;;1.10;;
46597;SDS011;32318;48.858;8.252;2023-07-20T11:08:12;3.75;;;1.10;;
46597;SDS011;32318;48.858;8.252;2023-07-20T11:16:12;5.07;;;1.15;;
46597;SDS011;32318;48.858;8.252;2023-07-20T11:24:17;3.40;;;1.00;;
46597;SDS011;32318;48.858;8.252;2023-07-20T11:32:21;4.88;;;0.85;;
46597;SDS011;32318;48.858;8.252;2023-07-20T11:40:22;1.63;;;0.90;;
46597;SDS011;32318;48.858;8.252;2023-07-20T11:48:24;2.47;;;1.00;;
46597;SDS011;32318;48.858;8.252;2023-07-20T11:56:24;4.10;;;1.13;;
46597;SDS011;32318;48.858;8.252;2023-07-20T12:04:26;2.10;;;1.13;;
46597;SDS011;32318;48.858;8.252;2023-07-20T12:12:26;1.48;;;0.98;;
46597;SDS011;32318;48.858;8.252;2023-07-20T12:20:30;3.00;;;1.20;;
46597;SDS011;32318;48.858;8.252;2023-07-20T12:28:41;4.40;;;1.00;;
46597;SDS011;32318;48.858;8.252;2023-07-20T12:36:42;2.20;;;1.23;;
46597;SDS011;32318;48.858;8.252;2023-07-20T12:44:42;2.28;;;0.88;;
46597;SDS011;32318;48.858;8.252;2023-07-20T12:52:42;2.28;;;1.08;;
46597;SDS011;32318;48.858;8.252;2023-07-20T13:00:43;1.98;;;0.88;;
46597;SDS011;32318;48.858;8.252;2023-07-20T13:08:43;1.88;;;1.23;;
46597;SDS011;32318;48.858;8.252;2023-07-20T13:16:44;3.47;;;1.10;;
46597;SDS011;32318;48.858;8.252;2023-07-20T13:24:44;3.58;;;1.05;;
46597;SDS011;32318;48.858;8.252;2023-07-20T13:32:54;2.63;;;1.05;;
46597;SDS011;32318;48.858;8.252;2023-07-20T13:40:54;1.35;;;0.90;;
46597;SDS011;32318;48.858;8.252;2023-07-20T13:48:55;1.98;;;0.80;;
46597;SDS011;32318;48.858;8.252;2023-07-20T13:56:55;2.83;;;0.93;;
46597;SDS011;32318;48.858;8.252;2023-07-20T14:04:56;2.05;;;1.00;;
46597;SDS011;32318;48.858;8.252;2023-07-20T14:12:56;2.80;;;1.17;;
46597;SDS011;32318;48.858;8.252;2023-07-20T14:20:56;2.30;;;1.08;;
46597;SDS011;32318;48.858;8.252;2023-07-20T14:28:57;4.28;;;1.48;;
46597;SDS011;32318;48.858;8.252;2023-07-20T14:36:59;6.05;;;1.63;;
46597;SDS011;32318;48.858;8.252;2023-07-20T14:44:59;10.35;;;1.30;;
46597;SDS011;32318;48.858;8.252;2023-07-20T14:53:00;4.00;;;1.00;;
46597;SDS011;32318;48.858;8.252;2023-07-20T15:01:00;4.45;;;0.90;;
46597;SDS011;32318;48.858;8.252;2023-07-20T15:09:00;1.40;;;0.80;;
46597;SDS011;32318;48.858;8.252;2023-07-20T15:17:01;2.58;;;1.02;;
46597;SDS011;32318;48.858;8.252;2023-07-20T15:25:02;3.03;;;1.30;;
46597;SDS011;32318;48.858;8.252;2023-07-20T15:33:04;3.15;;;1.30;;
46597;SDS011;32318;48.858;8.252;2023-07-20T15:41:04;1.67;;;0.90;;
46597;SDS011;32318;48.858;8.252;2023-07-20T15:49:04;2.90;;;1.25;;
46597;SDS011;32318;48.858;8.252;2023-07-20T15:57:05;3.90;;;1.10;;
46597;SDS011;32318;48.858;8.252;2023-07-20T16:05:06;3.65;;;1.30;;
46597;SDS011;32318;48.858;8.252;2023-07-20T16:13:06;1.33;;;0.83;;
46597;SDS011;32318;48.858;8.252;2023-07-20T16:21:06;2.85;;;0.93;;
46597;SDS011;32318;48.858;8.252;2023-07-20T16:29:07;5.30;;;0.90;;
46597;SDS011;32318;48.858;8.252;2023-07-20T16:37:07;5.47;;;0.95;;
46597;SDS011;32318;48.858;8.252;2023-07-20T16:45:08;2.15;;;0.93;;
46597;SDS011;32318;48.858;8.252;2023-07-20T16:53:08;2.65;;;1.15;;
46597;SDS011;32318;48.858;8.252;2023-07-20T17:01:09;5.07;;;1.30;;
46597;SDS011;32318;48.858;8.252;2023-07-20T17:09:10;1.75;;;1.25;;
46597;SDS011;32318;48.858;8.252;2023-07-20T17:17:10;2.33;;;1.10;;
46597;SDS011;32318;48.858;8.252;2023-07-20T17:25:10;5.47;;;1.17;;
46597;SDS011;32318;48.858;8.252;2023-07-20T17:33:11;7.13;;;1.20;;
46597;SDS011;32318;48.858;8.252;2023-07-20T17:41:11;3.05;;;1.23;;
46597;SDS011;32318;48.858;8.252;2023-07-20T17:49:12;2.83;;;1.17;;
46597;SDS011;32318;48.858;8.252;2023-07-20T17:57:12;2.55;;;1.10;;
46597;SDS011;32318;48.858;8.252;2023-07-20T18:05:12;2.42;;;1.05;;
46597;SDS011;32318;48.858;8.252;2023-07-20T18:13:14;3.00;;;1.10;;
46597;SDS011;32318;48.858;8.252;2023-07-20T18:21:18;2.67;;;1.07;;
46597;SDS011;32318;48.858;8.252;2023-07-20T18:29:18;2.03;;;1.27;;
46597;SDS011;32318;48.858;8.252;2023-07-20T18:37:18;2.90;;;1.33;;
46597;SDS011;32318;48.858;8.252;2023-07-20T18:45:20;6.32;;;1.35;;
46597;SDS011;32318;48.858;8.252;2023-07-20T18:53:20;2.47;;;1.20;;
46597;SDS011;32318;48.858;8.252;2023-07-20T19:01:21;2.53;;;1.05;;
46597;SDS011;32318;48.858;8.252;2023-07-20T19:09:22;3.30;;;1.20;;
46597;SDS011;32318;48.858;8.252;2023-07-20T19:17:22;8.00;;;1.15;;
46597;SDS011;32318;48.858;8.252;2023-07-20T19:25:25;2.45;;;1.13;;
46597;SDS011;32318;48.858;8.252;2023-07-20T19:33:25;2.85;;;1.20;;
46597;SDS011;32318;48.858;8.252;2023-07-20T19:41:25;2.42;;;1.40;;
46597;SDS011;32318;48.858;8.252;2023-07-20T19:49:26;1.73;;;1.00;;
46597;SDS011;32318;48.858;8.252;2023-07-20T19:57:28;2.70;;;1.35;;
46597;SDS011;32318;48.858;8.252;2023-07-20T20:05:29;5.10;;;1.38;;
46597;SDS011;32318;48.858;8.252;2023-07-20T20:13:29;5.68;;;1.77;;
46597;SDS011;32318;48.858;8.252;2023-07-20T20:21:31;2.53;;;1.30;;
46597;SDS011;32318;48.858;8.252;2023-07-20T20:29:31;6.68;;;1.23;;
46597;SDS011;32318;48.858;8.252;2023-07-20T20:37:31;3.30;;;1.40;;
46597;SDS011;32318;48.858;8.252;2023-07-20T20:45:33;4.60;;;1.30;;
46597;SDS011;32318;48.858;8.252;2023-07-20T20:53:33;10.25;;;1.50;;
46597;SDS011;32318;48.858;8.252;2023-07-20T21:01:34;2.85;;;1.25;;
46597;SDS011;32318;48.858;8.252;2023-07-20T21:09:34;3.42;;;1.40;;
46597;SDS011;32318;48.858;8.252;2023-07-20T21:17:35;6.20;;;2.67;;
46597;SDS011;32318;48.858;8.252;2023-07-20T21:25:35;4.13;;;1.42;;
46597;SDS011;32318;48.858;8.252;2023-07-20T21:33:36;5.20;;;1.30;;
46597;SDS011;32318;48.858;8.252;2023-07-20T21:41:36;3.80;;;1.58;;
46597;SDS011;32318;48.858;8.252;2023-07-20T21:49:38;3.03;;;1.55;;
46597;SDS011;32318;48.858;8.252;2023-07-20T21:57:38;2.63;;;1.53;;
46597;SDS011;32318;48.858;8.252;2023-07-20T22:05:41;2.72;;;1.30;;
46597;SDS011;32318;48.858;8.252;2023-07-20T22:13:44;5.80;;;1.48;;
46597;SDS011;32318;48.858;8.252;2023-07-20T22:21:45;3.38;;;1.67;;
46597;SDS011;32318;48.858;8.252;2023-07-20T22:29:46;3.60;;;1.42;;
46597;SDS011;32318;48.858;8.252;2023-07-20T22:37:47;6.57;;;1.80;;
46597;SDS011;32318;48.858;8.252;2023-07-20T22:45:49;4.55;;;1.50;;
46597;SDS011;32318;48.858;8.252;2023-07-20T22:53:51;5.60;;;1.90;;
46597;SDS011;32318;48.858;8.252;2023-07-20T23:01:52;3.80;;;1.67;;
46597;SDS011;32318;48.858;8.252;2023-07-20T23:09:52;3.60;;;1.13;;
46597;SDS011;32318;48.858;8.252;2023-07-20T23:17:52;3.70;;;1.60;;
46597;SDS011;32318;48.858;8.252;2023-07-20T23:25:53;3.03;;;1.48;;
46597;SDS011;32318;48.858;8.252;2023-07-20T23:33:54;4.68;;;1.55;;
46597;SDS011;32318;48.858;8.252;2023-07-20T23:41:54;2.15;;;1.33;;
46597;SDS011;32318;48.858;8.252;2023-07-20T23:49:56;6.70;;;1.70;;
46597;SDS011;32318;48.858;8.252;2023-07-20T23:57:56;4.47;;;1.37;;
